createdAt,value
2023-03-18T00:03:03.719Z,13.27
2023-03-18T00:08:06.626Z,15.50
2023-03-18T00:13:08.437Z,13.32
2023-03-18T00:18:10.209Z,22.35
2023-03-18T00:23:13.125Z,14.68
2023-03-18T00:28:17.354Z,18.17
2023-03-18T00:33:21.080Z,13.77
2023-03-18T00:38:22.946Z,8.95
2023-03-18T00:43:29.526Z,15.20
2023-03-18T00:48:31.569Z,8.98
2023-03-18T00:53:33.514Z,11.70
2023-03-18T00:58:36.999Z,11.82
2023-03-18T01:03:44.883Z,14.40
2023-03-18T01:08:46.885Z,15.90
2023-03-18T01:13:49.364Z,13.40
2023-03-18T01:18:52.446Z,9.68
2023-03-18T01:23:54.389Z,12.52
2023-03-18T01:28:57.125Z,13.32
2023-03-18T01:33:59.844Z,16.63
2023-03-18T01:39:03.086Z,10.00
2023-03-18T01:44:13.545Z,13.00
2023-03-18T01:49:47.726Z,14.07
2023-03-18T01:54:57.877Z,12.90
2023-03-18T02:00:00.748Z,13.55
2023-03-18T02:05:06.545Z,15.48
2023-03-18T02:10:21.848Z,11.50
2023-03-18T02:15:27.283Z,13.90
2023-03-18T02:20:47.067Z,13.82
2023-03-18T02:26:31.022Z,12.55
2023-03-18T02:31:38.763Z,13.40
2023-03-18T02:36:41.458Z,11.20
2023-03-18T02:41:45.939Z,13.52
2023-03-18T02:47:06.158Z,10.82
2023-03-18T02:52:08.319Z,14.27
2023-03-18T02:57:11.207Z,14.55
2023-03-18T03:02:20.358Z,11.63
2023-03-18T03:07:27.127Z,14.55
2023-03-18T03:12:29.739Z,13.18
2023-03-18T03:17:33.827Z,11.65
2023-03-18T03:22:35.800Z,11.63
2023-03-18T03:27:38.078Z,12.38
2023-03-18T03:32:40.428Z,14.48
2023-03-18T03:37:45.926Z,13.30
2023-03-18T03:42:48.996Z,10.68
2023-03-18T03:47:51.530Z,13.35
2023-03-18T03:52:53.553Z,13.48
2023-03-18T03:57:55.456Z,11.38
2023-03-18T04:02:58.175Z,11.45
2023-03-18T04:08:00.268Z,12.52
2023-03-18T04:13:12.905Z,16.05
2023-03-18T04:18:17.034Z,11.25
2023-03-18T04:23:19.748Z,15.00
2023-03-18T04:28:21.803Z,12.05
2023-03-18T04:33:24.818Z,12.90
2023-03-18T04:38:28.370Z,13.38
2023-03-18T04:43:30.519Z,9.63
2023-03-18T04:48:32.466Z,11.07
2023-03-18T04:53:39.558Z,11.52
2023-03-18T04:58:44.454Z,12.13
2023-03-18T05:03:51.870Z,11.73
2023-03-18T05:08:57.212Z,16.83
2023-03-18T05:14:01.953Z,15.02
2023-03-18T05:19:09.836Z,13.35
2023-03-18T05:24:17.491Z,7.97
2023-03-18T05:29:19.578Z,11.90
2023-03-18T05:34:47.748Z,9.82
2023-03-18T05:39:50.390Z,10.38
2023-03-18T05:44:55.260Z,13.02
2023-03-18T05:49:59.926Z,12.15
2023-03-18T05:55:03.380Z,10.90
2023-03-18T06:00:10.196Z,14.60
2023-03-18T06:05:19.381Z,13.43
2023-03-18T06:10:23.154Z,14.93
2023-03-18T06:15:26.614Z,12.32
2023-03-18T06:20:28.438Z,15.80
2023-03-18T06:25:30.287Z,18.45
2023-03-18T06:30:32.480Z,11.38
2023-03-18T06:35:35.712Z,16.60
2023-03-18T06:40:38.301Z,16.25
2023-03-18T06:45:42.047Z,15.85
2023-03-18T06:50:44.967Z,12.43
2023-03-18T06:55:54.217Z,13.13
2023-03-18T07:01:00.384Z,12.10
2023-03-18T07:06:10.360Z,11.98
2023-03-18T07:11:13.399Z,15.07
2023-03-18T07:16:17.688Z,17.40
2023-03-18T07:21:19.809Z,14.15
2023-03-18T07:26:23.168Z,12.65
2023-03-18T07:31:25.498Z,14.20
2023-03-18T07:36:28.413Z,13.20
2023-03-18T07:41:30.780Z,9.90
2023-03-18T07:46:32.574Z,11.95
2023-03-18T07:51:34.455Z,10.77
2023-03-18T07:56:36.221Z,13.63
2023-03-18T08:01:39.652Z,13.73
2023-03-18T08:06:41.688Z,13.10
2023-03-18T08:11:44.031Z,10.77
2023-03-18T08:16:46.044Z,7.90
2023-03-18T08:21:48.125Z,12.38
2023-03-18T08:26:56.302Z,18.20
2023-03-18T08:31:58.611Z,12.93
2023-03-18T08:37:00.985Z,10.07
2023-03-18T08:42:04.639Z,7.55
2023-03-18T08:47:06.837Z,10.80
2023-03-18T08:52:08.684Z,12.85
2023-03-18T08:57:10.802Z,9.15
2023-03-18T09:02:18.501Z,9.50
2023-03-18T09:07:20.399Z,11.80
2023-03-18T09:12:22.728Z,11.48
2023-03-18T09:17:39.151Z,11.27
2023-03-18T09:22:47.418Z,8.90
2023-03-18T09:27:49.358Z,12.82
2023-03-18T09:32:51.156Z,9.70
2023-03-18T09:37:54.085Z,7.18
2023-03-18T09:43:02.552Z,10.30
2023-03-18T09:48:23.087Z,14.43
2023-03-18T09:54:08.775Z,10.55
2023-03-18T09:59:20.198Z,10.35
2023-03-18T10:04:26.732Z,10.05
2023-03-18T10:09:41.689Z,12.57
2023-03-18T10:14:53.301Z,7.20
2023-03-18T10:19:58.584Z,11.85
2023-03-18T10:25:24.219Z,10.60
2023-03-18T10:31:15.518Z,11.13
2023-03-18T10:36:23.601Z,10.13
2023-03-18T10:41:39.082Z,10.00
2023-03-18T10:46:51.183Z,16.95
2023-03-18T10:52:06.269Z,12.98
2023-03-18T10:57:18.055Z,14.65
2023-03-18T11:02:36.510Z,11.57
2023-03-18T11:08:03.639Z,14.60
2023-03-18T11:13:06.558Z,16.45
2023-03-18T11:18:18.410Z,9.15
2023-03-18T11:23:48.851Z,12.57
2023-03-18T11:28:59.003Z,12.90
2023-03-18T11:34:04.186Z,15.60
2023-03-18T11:39:07.013Z,12.98
2023-03-18T11:44:18.760Z,13.20
2023-03-18T11:49:23.631Z,14.55
2023-03-18T11:54:25.349Z,10.63
2023-03-18T11:59:29.878Z,16.95
2023-03-18T12:04:52.880Z,18.55
2023-03-18T12:10:15.142Z,15.43
2023-03-18T12:15:55.257Z,18.10
2023-03-18T12:21:15.021Z,16.25
2023-03-18T12:26:40.780Z,16.38
2023-03-18T12:32:07.430Z,14.13
2023-03-18T12:37:20.504Z,16.02
2023-03-18T12:42:31.512Z,14.23
2023-03-18T12:47:41.440Z,16.33
2023-03-18T12:52:58.894Z,20.90
2023-03-18T12:58:11.248Z,15.10
2023-03-18T13:03:18.879Z,14.75
2023-03-18T13:08:46.907Z,19.35
2023-03-18T13:13:55.923Z,19.30
2023-03-18T13:18:59.766Z,18.15
2023-03-18T13:24:08.800Z,17.48
2023-03-18T13:29:46.287Z,14.90
2023-03-18T13:34:48.021Z,17.83
2023-03-18T13:40:03.130Z,18.30
2023-03-18T13:45:33.756Z,17.60
2023-03-18T13:50:40.272Z,15.05
2023-03-18T13:55:48.330Z,14.57
2023-03-18T14:00:56.776Z,16.88
2023-03-18T14:06:04.656Z,14.88
2023-03-18T14:11:23.053Z,21.33
2023-03-18T14:16:30.074Z,18.35
2023-03-18T14:21:34.241Z,15.77
2023-03-18T14:26:37.830Z,14.15
2023-03-18T14:31:39.698Z,16.08
2023-03-18T14:37:07.554Z,14.45
2023-03-18T14:42:28.798Z,18.33
2023-03-18T14:47:52.094Z,15.98
2023-03-18T14:53:02.141Z,19.83
2023-03-18T14:58:04.910Z,20.10
2023-03-18T15:03:16.833Z,15.57
2023-03-18T15:08:22.934Z,17.15
2023-03-18T15:13:28.797Z,19.65
2023-03-18T15:18:36.349Z,17.90
2023-03-18T15:23:45.929Z,17.80
2023-03-18T15:28:49.385Z,19.53
2023-03-18T15:34:19.046Z,18.45
2023-03-18T15:39:22.537Z,18.67
2023-03-18T15:44:40.823Z,23.67
2023-03-18T15:49:54.839Z,19.80
2023-03-18T15:54:57.900Z,20.45
2023-03-18T16:00:00.271Z,21.38
2023-03-18T16:05:14.832Z,20.10
2023-03-18T16:10:22.752Z,17.90
2023-03-18T16:15:27.921Z,25.83
2023-03-18T16:20:31.536Z,22.52
2023-03-18T16:25:34.665Z,23.65
2023-03-18T16:30:40.462Z,20.33
2023-03-18T16:35:43.659Z,24.25
2023-03-18T16:40:46.778Z,26.73
2023-03-18T16:45:50.695Z,22.58
2023-03-18T16:50:52.872Z,23.13
2023-03-18T16:55:58.400Z,27.00
2023-03-18T17:01:00.375Z,31.85
2023-03-18T17:06:02.477Z,34.28
2023-03-18T17:11:04.891Z,53.42
2023-03-18T17:16:18.208Z,38.78
2023-03-18T17:21:19.989Z,54.92
2023-03-18T17:26:22.813Z,85.65
2023-03-18T17:31:24.899Z,53.25
2023-03-18T17:36:27.721Z,45.50
2023-03-18T17:41:34.479Z,77.90
2023-03-18T17:46:36.475Z,37.97
2023-03-18T17:51:38.842Z,28.33
2023-03-18T17:56:40.864Z,35.13
2023-03-18T18:01:45.493Z,29.45
2023-03-18T18:06:49.147Z,31.63
2023-03-18T18:11:51.201Z,42.22
2023-03-18T18:16:56.077Z,30.67
2023-03-18T18:21:58.670Z,30.95
2023-03-18T18:27:00.569Z,28.55
2023-03-18T18:32:02.493Z,28.70
2023-03-18T18:37:04.860Z,27.90
2023-03-18T18:42:07.643Z,41.67
2023-03-18T18:47:19.096Z,43.25
2023-03-18T18:52:21.141Z,41.55
2023-03-18T18:57:31.105Z,28.88
2023-03-18T19:02:40.856Z,28.70
2023-03-18T19:07:42.837Z,36.38
2023-03-18T19:12:44.769Z,44.85
2023-03-18T19:17:46.851Z,57.80
2023-03-18T19:22:50.810Z,60.80
2023-03-18T19:27:54.679Z,46.63
2023-03-18T19:32:57.344Z,42.28
2023-03-18T19:37:59.891Z,42.65
2023-03-18T19:43:02.119Z,43.05
2023-03-18T19:48:04.263Z,60.80
2023-03-18T19:53:14.424Z,42.17
2023-03-18T19:58:27.349Z,34.60
2023-03-18T20:03:29.128Z,37.75
2023-03-18T20:08:31.231Z,36.72
2023-03-18T20:13:33.052Z,36.83
2023-03-18T20:18:35.436Z,36.70
2023-03-18T20:23:37.855Z,32.92
2023-03-18T20:28:45.306Z,32.17
2023-03-18T20:33:47.342Z,37.13
2023-03-18T20:38:50.617Z,40.63
2023-03-18T20:43:52.745Z,38.20
2023-03-18T20:48:54.747Z,40.25
2023-03-18T20:53:57.041Z,46.28
2023-03-18T20:58:58.826Z,38.38
2023-03-18T21:04:02.608Z,37.42
2023-03-18T21:09:06.273Z,32.13
2023-03-18T21:14:15.301Z,34.28
2023-03-18T21:19:17.633Z,31.80
2023-03-18T21:24:26.036Z,42.10
2023-03-18T21:29:27.988Z,43.22
2023-03-18T21:34:29.886Z,46.95
2023-03-18T21:39:32.486Z,39.47
2023-03-18T21:44:34.370Z,44.55
2023-03-18T21:49:36.253Z,47.63
2023-03-18T21:54:38.064Z,46.35
2023-03-18T21:59:39.855Z,34.85
2023-03-18T22:04:41.776Z,35.53
2023-03-18T22:09:45.144Z,41.40
2023-03-18T22:14:46.945Z,42.65
2023-03-18T22:19:49.967Z,42.17
2023-03-18T22:24:52.540Z,33.70
2023-03-18T22:29:57.893Z,28.90
2023-03-18T22:34:59.752Z,29.65
2023-03-18T22:40:01.534Z,28.30
2023-03-18T22:45:03.694Z,37.20
2023-03-18T22:50:05.926Z,34.00
2023-03-18T22:55:19.481Z,29.77
2023-03-18T23:00:32.827Z,34.47
2023-03-18T23:05:34.802Z,32.90
2023-03-18T23:10:36.726Z,29.98
2023-03-18T23:15:38.486Z,35.92
2023-03-18T23:20:40.440Z,34.55
2023-03-18T23:25:44.278Z,34.13
2023-03-18T23:30:51.957Z,34.10
2023-03-18T23:35:53.901Z,37.03
2023-03-18T23:40:55.763Z,34.63
2023-03-18T23:45:57.693Z,33.17
2023-03-18T23:50:59.746Z,31.27
2023-03-18T23:56:01.777Z,33.90
